sensor_id;sensor_type;location;lat;lon;timestamp;P1;durP1;ratioP1;P2;durP2;ratioP2
14013;SDS011;49110;52.584;13.408;2024-02-21T00:00:24;37.13;;;33.57;;
14013;SDS011;49110;52.584;13.408;2024-02-21T00:01:25;35.13;;;31.93;;
14013;SDS011;49110;52.584;13.408;2024-02-21T00:02:25;32.13;;;29.03;;
14013;SDS011;49110;52.584;13.408;2024-02-21T00:03:26;36.03;;;31.47;;
14013;SDS011;49110;52.584;13.408;2024-02-21T00:04:26;35.33;;;31.73;;
14013;SDS011;49110;52.584;13.408;2024-02-21T00:05:27;34.23;;;31.13;;
14013;SDS011;49110;52.584;13.408;2024-02-21T00:06:27;34.60;;;31.63;;
14013;SDS011;49110;52.584;13.408;2024-02-21T00:07:28;37.40;;;33.43;;
14013;SDS011;49110;52.584;13.408;2024-02-21T00:08:28;35.67;;;32.20;;
14013;SDS011;49110;52.584;13.408;2024-02-21T00:09:29;34.10;;;30.73;;
14013;SDS011;49110;52.584;13.408;2024-02-21T00:10:29;32.53;;;29.50;;
14013;SDS011;49110;52.584;13.408;2024-02-21T00:11:32;31.70;;;28.73;;
14013;SDS011;49110;52.584;13.408;2024-02-21T00:12:32;34.83;;;31.33;;
14013;SDS011;49110;52.584;13.408;2024-02-21T00:13:32;34.03;;;30.83;;
14013;SDS011;49110;52.584;13.408;2024-02-21T00:14:33;35.00;;;31.37;;
14013;SDS011;49110;52.584;13.408;2024-02-21T00:15:33;32.43;;;29.40;;
14013;SDS011;49110;52.584;13.408;2024-02-21T00:16:34;33.90;;;30.90;;
14013;SDS011;49110;52.584;13.408;2024-02-21T00:17:34;35.13;;;31.83;;
14013;SDS011;49110;52.584;13.408;2024-02-21T00:18:35;34.50;;;31.27;;
14013;SDS011;49110;52.584;13.408;2024-02-21T00:19:35;31.97;;;28.97;;
14013;SDS011;49110;52.584;13.408;2024-02-21T00:20:36;34.23;;;30.80;;
14013;SDS011;49110;52.584;13.408;2024-02-21T00:21:36;33.33;;;30.33;;
14013;SDS011;49110;52.584;13.408;2024-02-21T00:22:37;31.27;;;28.53;;
14013;SDS011;49110;52.584;13.408;2024-02-21T00:23:37;32.33;;;29.17;;
14013;SDS011;49110;52.584;13.408;2024-02-21T00:24:38;32.70;;;29.70;;
14013;SDS011;49110;52.584;13.408;2024-02-21T00:25:38;34.43;;;31.27;;
14013;SDS011;49110;52.584;13.408;2024-02-21T00:26:39;34.37;;;31.37;;
14013;SDS011;49110;52.584;13.408;2024-02-21T00:27:39;34.03;;;30.80;;
14013;SDS011;49110;52.584;13.408;2024-02-21T00:28:40;33.87;;;30.57;;
14013;SDS011;49110;52.584;13.408;2024-02-21T00:29:40;33.77;;;30.30;;
14013;SDS011;49110;52.584;13.408;2024-02-21T00:30:41;33.93;;;30.63;;
14013;SDS011;49110;52.584;13.408;2024-02-21T00:31:41;35.20;;;31.77;;
14013;SDS011;49110;52.584;13.408;2024-02-21T00:32:42;35.03;;;31.80;;
14013;SDS011;49110;52.584;13.408;2024-02-21T00:33:42;33.67;;;30.57;;
14013;SDS011;49110;52.584;13.408;2024-02-21T00:34:43;34.20;;;30.87;;
14013;SDS011;49110;52.584;13.408;2024-02-21T00:35:44;32.37;;;29.13;;
14013;SDS011;49110;52.584;13.408;2024-02-21T00:36:44;32.33;;;28.83;;
14013;SDS011;49110;52.584;13.408;2024-02-21T00:37:45;34.63;;;31.73;;
14013;SDS011;49110;52.584;13.408;2024-02-21T00:38:45;35.40;;;32.50;;
14013;SDS011;49110;52.584;13.408;2024-02-21T00:39:45;34.60;;;31.47;;
14013;SDS011;49110;52.584;13.408;2024-02-21T00:40:46;33.00;;;29.90;;
14013;SDS011;49110;52.584;13.408;2024-02-21T00:41:46;34.83;;;31.70;;
14013;SDS011;49110;52.584;13.408;2024-02-21T00:42:47;32.97;;;29.73;;
14013;SDS011;49110;52.584;13.408;2024-02-21T00:43:47;33.03;;;29.57;;
14013;SDS011;49110;52.584;13.408;2024-02-21T00:44:51;33.27;;;30.07;;
14013;SDS011;49110;52.584;13.408;2024-02-21T00:45:51;32.80;;;29.50;;
14013;SDS011;49110;52.584;13.408;2024-02-21T00:46:52;33.40;;;30.33;;
14013;SDS011;49110;52.584;13.408;2024-02-21T00:47:52;31.33;;;28.23;;
14013;SDS011;49110;52.584;13.408;2024-02-21T00:48:53;34.40;;;31.43;;
14013;SDS011;49110;52.584;13.408;2024-02-21T00:49:53;32.73;;;29.83;;
14013;SDS011;49110;52.584;13.408;2024-02-21T00:50:55;32.70;;;29.77;;
14013;SDS011;49110;52.584;13.408;2024-02-21T00:51:55;32.30;;;29.27;;
14013;SDS011;49110;52.584;13.408;2024-02-21T00:52:55;33.90;;;30.43;;
14013;SDS011;49110;52.584;13.408;2024-02-21T00:53:56;33.90;;;30.90;;
14013;SDS011;49110;52.584;13.408;2024-02-21T00:54:56;33.40;;;30.10;;
14013;SDS011;49110;52.584;13.408;2024-02-21T00:55:57;32.73;;;29.60;;
14013;SDS011;49110;52.584;13.408;2024-02-21T00:56:57;31.83;;;28.83;;
14013;SDS011;49110;52.584;13.408;2024-02-21T00:57:58;32.13;;;29.07;;
14013;SDS011;49110;52.584;13.408;2024-02-21T00:58:58;31.47;;;28.57;;
14013;SDS011;49110;52.584;13.408;2024-02-21T00:59:59;34.13;;;31.03;;
14013;SDS011;49110;52.584;13.408;2024-02-21T01:01:02;35.30;;;31.83;;
14013;SDS011;49110;52.584;13.408;2024-02-21T01:02:03;30.87;;;27.97;;
14013;SDS011;49110;52.584;13.408;2024-02-21T01:03:03;32.80;;;29.80;;
14013;SDS011;49110;52.584;13.408;2024-02-21T01:04:04;33.70;;;30.90;;
14013;SDS011;49110;52.584;13.408;2024-02-21T01:05:04;32.10;;;29.37;;
14013;SDS011;49110;52.584;13.408;2024-02-21T01:06:05;32.83;;;29.60;;
14013;SDS011;49110;52.584;13.408;2024-02-21T01:07:07;33.23;;;30.00;;
14013;SDS011;49110;52.584;13.408;2024-02-21T01:08:07;33.10;;;30.17;;
14013;SDS011;49110;52.584;13.408;2024-02-21T01:09:08;33.93;;;30.83;;
14013;SDS011;49110;52.584;13.408;2024-02-21T01:10:08;33.60;;;30.27;;
14013;SDS011;49110;52.584;13.408;2024-02-21T01:11:09;33.73;;;30.53;;
14013;SDS011;49110;52.584;13.408;2024-02-21T01:12:09;36.03;;;32.77;;
14013;SDS011;49110;52.584;13.408;2024-02-21T01:13:10;34.63;;;31.40;;
14013;SDS011;49110;52.584;13.408;2024-02-21T01:14:10;32.40;;;29.57;;
14013;SDS011;49110;52.584;13.408;2024-02-21T01:15:11;34.63;;;31.60;;
14013;SDS011;49110;52.584;13.408;2024-02-21T01:16:12;34.50;;;31.63;;
14013;SDS011;49110;52.584;13.408;2024-02-21T01:17:12;33.97;;;31.07;;
14013;SDS011;49110;52.584;13.408;2024-02-21T01:18:13;32.07;;;29.10;;
14013;SDS011;49110;52.584;13.408;2024-02-21T01:19:14;34.93;;;31.93;;
14013;SDS011;49110;52.584;13.408;2024-02-21T01:20:14;34.93;;;31.73;;
14013;SDS011;49110;52.584;13.408;2024-02-21T01:21:15;33.13;;;30.37;;
14013;SDS011;49110;52.584;13.408;2024-02-21T01:22:15;35.10;;;31.83;;
14013;SDS011;49110;52.584;13.408;2024-02-21T01:23:16;33.87;;;30.67;;
14013;SDS011;49110;52.584;13.408;2024-02-21T01:24:16;33.47;;;30.30;;
14013;SDS011;49110;52.584;13.408;2024-02-21T01:25:17;34.57;;;31.53;;
14013;SDS011;49110;52.584;13.408;2024-02-21T01:26:17;32.20;;;29.03;;
14013;SDS011;49110;52.584;13.408;2024-02-21T01:27:18;32.13;;;29.17;;
14013;SDS011;49110;52.584;13.408;2024-02-21T01:28:18;34.97;;;31.47;;
14013;SDS011;49110;52.584;13.408;2024-02-21T01:29:19;33.60;;;30.70;;
14013;SDS011;49110;52.584;13.408;2024-02-21T01:30:19;33.27;;;30.17;;
14013;SDS011;49110;52.584;13.408;2024-02-21T01:31:20;34.87;;;31.57;;
14013;SDS011;49110;52.584;13.408;2024-02-21T01:32:21;33.47;;;30.40;;
14013;SDS011;49110;52.584;13.408;2024-02-21T01:33:24;34.43;;;31.47;;
14013;SDS011;49110;52.584;13.408;2024-02-21T01:34:24;31.90;;;29.00;;
14013;SDS011;49110;52.584;13.408;2024-02-21T01:35:25;36.33;;;33.37;;
14013;SDS011;49110;52.584;13.408;2024-02-21T01:36:25;32.47;;;29.70;;
14013;SDS011;49110;52.584;13.408;2024-02-21T01:37:26;32.77;;;30.03;;
14013;SDS011;49110;52.584;13.408;2024-02-21T01:38:26;32.03;;;29.20;;
14013;SDS011;49110;52.584;13.408;2024-02-21T01:39:26;33.13;;;30.00;;
14013;SDS011;49110;52.584;13.408;2024-02-21T01:40:27;30.63;;;27.67;;
14013;SDS011;49110;52.584;13.408;2024-02-21T01:41:29;33.00;;;30.27;;
14013;SDS011;49110;52.584;13.408;2024-02-21T01:42:30;32.03;;;29.40;;
14013;SDS011;49110;52.584;13.408;2024-02-21T01:43:31;31.13;;;28.70;;
14013;SDS011;49110;52.584;13.408;2024-02-21T01:44:31;33.50;;;30.50;;
14013;SDS011;49110;52.584;13.408;2024-02-21T01:45:32;29.57;;;27.07;;
14013;SDS011;49110;52.584;13.408;2024-02-21T01:46:32;31.37;;;28.47;;
14013;SDS011;49110;52.584;13.408;2024-02-21T01:47:34;30.77;;;28.03;;
14013;SDS011;49110;52.584;13.408;2024-02-21T01:48:36;33.00;;;29.60;;
14013;SDS011;49110;52.584;13.408;2024-02-21T01:49:36;32.70;;;29.60;;
14013;SDS011;49110;52.584;13.408;2024-02-21T01:50:37;29.67;;;27.07;;
14013;SDS011;49110;52.584;13.408;2024-02-21T01:51:37;31.43;;;28.57;;
14013;SDS011;49110;52.584;13.408;2024-02-21T01:52:39;32.33;;;29.53;;
14013;SDS011;49110;52.584;13.408;2024-02-21T01:53:42;31.73;;;29.13;;
14013;SDS011;49110;52.584;13.408;2024-02-21T01:54:44;30.63;;;27.87;;
14013;SDS011;49110;52.584;13.408;2024-02-21T01:55:46;31.60;;;28.70;;
14013;SDS011;49110;52.584;13.408;2024-02-21T01:56:47;32.73;;;29.87;;
14013;SDS011;49110;52.584;13.408;2024-02-21T01:57:48;30.97;;;28.17;;
14013;SDS011;49110;52.584;13.408;2024-02-21T01:58:49;31.50;;;28.83;;
14013;SDS011;49110;52.584;13.408;2024-02-21T01:59:50;29.93;;;27.03;;
14013;SDS011;49110;52.584;13.408;2024-02-21T02:00:52;29.97;;;27.47;;
14013;SDS011;49110;52.584;13.408;2024-02-21T02:01:53;29.67;;;27.30;;
14013;SDS011;49110;52.584;13.408;2024-02-21T02:02:56;31.00;;;27.93;;
14013;SDS011;49110;52.584;13.408;2024-02-21T02:05:55;26.43;;;23.83;;
14013;SDS011;49110;52.584;13.408;2024-02-21T02:06:55;29.60;;;26.73;;
14013;SDS011;49110;52.584;13.408;2024-02-21T02:07:57;30.03;;;27.03;;
14013;SDS011;49110;52.584;13.408;2024-02-21T02:08:57;29.83;;;27.27;;
14013;SDS011;49110;52.584;13.408;2024-02-21T02:09:58;30.73;;;28.17;;
14013;SDS011;49110;52.584;13.408;2024-02-21T02:10:59;29.80;;;27.10;;
14013;SDS011;49110;52.584;13.408;2024-02-21T02:12:00;30.03;;;27.63;;
14013;SDS011;49110;52.584;13.408;2024-02-21T02:13:01;28.70;;;25.90;;
14013;SDS011;49110;52.584;13.408;2024-02-21T02:14:02;31.37;;;28.47;;
14013;SDS011;49110;52.584;13.408;2024-02-21T02:15:03;29.07;;;26.47;;
14013;SDS011;49110;52.584;13.408;2024-02-21T02:16:06;30.17;;;27.57;;
14013;SDS011;49110;52.584;13.408;2024-02-21T02:17:07;31.07;;;28.57;;
14013;SDS011;49110;52.584;13.408;2024-02-21T02:18:09;29.90;;;27.20;;
14013;SDS011;49110;52.584;13.408;2024-02-21T02:19:10;30.87;;;28.03;;
14013;SDS011;49110;52.584;13.408;2024-02-21T02:20:13;33.17;;;30.40;;
14013;SDS011;49110;52.584;13.408;2024-02-21T02:21:16;33.93;;;30.93;;
14013;SDS011;49110;52.584;13.408;2024-02-21T02:22:38;32.30;;;29.20;;
14013;SDS011;49110;52.584;13.408;2024-02-21T02:23:41;32.93;;;29.83;;
14013;SDS011;49110;52.584;13.408;2024-02-21T02:24:42;34.30;;;30.97;;
14013;SDS011;49110;52.584;13.408;2024-02-21T02:25:43;34.13;;;31.17;;
14013;SDS011;49110;52.584;13.408;2024-02-21T02:26:49;31.73;;;28.80;;
14013;SDS011;49110;52.584;13.408;2024-02-21T02:27:49;35.57;;;32.63;;
14013;SDS011;49110;52.584;13.408;2024-02-21T02:28:50;34.40;;;31.60;;
14013;SDS011;49110;52.584;13.408;2024-02-21T02:29:50;34.77;;;31.87;;
14013;SDS011;49110;52.584;13.408;2024-02-21T02:30:52;34.60;;;31.60;;
14013;SDS011;49110;52.584;13.408;2024-02-21T02:31:53;33.13;;;30.23;;
14013;SDS011;49110;52.584;13.408;2024-02-21T02:32:53;32.13;;;29.53;;
14013;SDS011;49110;52.584;13.408;2024-02-21T02:33:54;34.50;;;31.53;;
14013;SDS011;49110;52.584;13.408;2024-02-21T02:34:54;32.97;;;30.47;;
14013;SDS011;49110;52.584;13.408;2024-02-21T02:35:55;33.77;;;30.63;;
14013;SDS011;49110;52.584;13.408;2024-02-21T02:36:56;34.67;;;31.77;;
14013;SDS011;49110;52.584;13.408;2024-02-21T02:37:56;33.27;;;30.53;;
14013;SDS011;49110;52.584;13.408;2024-02-21T02:38:56;32.50;;;29.97;;
14013;SDS011;49110;52.584;13.408;2024-02-21T02:39:57;32.70;;;29.87;;
14013;SDS011;49110;52.584;13.408;2024-02-21T02:40:57;35.70;;;32.77;;
14013;SDS011;49110;52.584;13.408;2024-02-21T02:41:58;32.70;;;29.93;;
14013;SDS011;49110;52.584;13.408;2024-02-21T02:42:58;32.83;;;30.37;;
14013;SDS011;49110;52.584;13.408;2024-02-21T02:43:59;33.60;;;30.80;;
14013;SDS011;49110;52.584;13.408;2024-02-21T02:44:59;34.57;;;31.47;;
14013;SDS011;49110;52.584;13.408;2024-02-21T02:46:00;32.47;;;29.67;;
14013;SDS011;49110;52.584;13.408;2024-02-21T02:47:00;35.83;;;32.33;;
14013;SDS011;49110;52.584;13.408;2024-02-21T02:48:01;35.13;;;32.10;;
14013;SDS011;49110;52.584;13.408;2024-02-21T02:49:01;35.03;;;32.27;;
14013;SDS011;49110;52.584;13.408;2024-02-21T02:50:02;35.10;;;32.20;;
14013;SDS011;49110;52.584;13.408;2024-02-21T02:51:03;33.60;;;30.80;;
14013;SDS011;49110;52.584;13.408;2024-02-21T02:52:03;35.43;;;32.23;;
14013;SDS011;49110;52.584;13.408;2024-02-21T02:53:04;33.63;;;30.47;;
14013;SDS011;49110;52.584;13.408;2024-02-21T02:54:04;34.77;;;31.57;;
14013;SDS011;49110;52.584;13.408;2024-02-21T02:55:05;34.47;;;31.17;;
14013;SDS011;49110;52.584;13.408;2024-02-21T02:56:06;33.80;;;30.70;;
14013;SDS011;49110;52.584;13.408;2024-02-21T02:57:07;32.10;;;29.43;;
14013;SDS011;49110;52.584;13.408;2024-02-21T02:58:07;33.07;;;30.50;;
14013;SDS011;49110;52.584;13.408;2024-02-21T02:59:08;33.90;;;31.00;;
14013;SDS011;49110;52.584;13.408;2024-02-21T03:00:12;33.40;;;30.63;;
14013;SDS011;49110;52.584;13.408;2024-02-21T03:01:14;33.30;;;30.70;;
14013;SDS011;49110;52.584;13.408;2024-02-21T03:02:14;34.17;;;31.27;;
14013;SDS011;49110;52.584;13.408;2024-02-21T03:03:15;37.73;;;34.03;;
14013;SDS011;49110;52.584;13.408;2024-02-21T03:04:15;36.47;;;33.33;;
14013;SDS011;49110;52.584;13.408;2024-02-21T03:05:17;37.77;;;34.67;;
14013;SDS011;49110;52.584;13.408;2024-02-21T03:06:18;40.37;;;37.00;;
14013;SDS011;49110;52.584;13.408;2024-02-21T03:07:19;41.93;;;38.47;;
14013;SDS011;49110;52.584;13.408;2024-02-21T03:08:19;41.37;;;38.00;;
14013;SDS011;49110;52.584;13.408;2024-02-21T03:09:20;41.67;;;38.30;;
14013;SDS011;49110;52.584;13.408;2024-02-21T03:10:20;44.87;;;41.30;;
14013;SDS011;49110;52.584;13.408;2024-02-21T03:11:21;42.73;;;39.10;;
14013;SDS011;49110;52.584;13.408;2024-02-21T03:12:28;40.97;;;37.40;;
14013;SDS011;49110;52.584;13.408;2024-02-21T03:13:29;42.10;;;38.57;;
14013;SDS011;49110;52.584;13.408;2024-02-21T03:14:29;44.03;;;40.33;;
14013;SDS011;49110;52.584;13.408;2024-02-21T03:15:30;41.37;;;38.17;;
14013;SDS011;49110;52.584;13.408;2024-02-21T03:16:30;43.93;;;40.37;;
14013;SDS011;49110;52.584;13.408;2024-02-21T03:17:31;44.20;;;40.90;;
14013;SDS011;49110;52.584;13.408;2024-02-21T03:18:34;41.63;;;38.43;;
14013;SDS011;49110;52.584;13.408;2024-02-21T03:19:34;39.60;;;36.50;;
14013;SDS011;49110;52.584;13.408;2024-02-21T03:20:35;41.40;;;38.10;;
14013;SDS011;49110;52.584;13.408;2024-02-21T03:21:35;39.73;;;36.10;;
14013;SDS011;49110;52.584;13.408;2024-02-21T03:22:39;43.73;;;40.33;;
14013;SDS011;49110;52.584;13.408;2024-02-21T03:23:40;35.77;;;32.80;;
14013;SDS011;49110;52.584;13.408;2024-02-21T03:24:40;41.63;;;37.93;;
14013;SDS011;49110;52.584;13.408;2024-02-21T03:25:41;38.30;;;35.33;;
14013;SDS011;49110;52.584;13.408;2024-02-21T03:26:41;38.07;;;35.00;;
14013;SDS011;49110;52.584;13.408;2024-02-21T03:27:42;36.97;;;33.87;;
14013;SDS011;49110;52.584;13.408;2024-02-21T03:28:43;38.83;;;35.87;;
14013;SDS011;49110;52.584;13.408;2024-02-21T03:29:46;38.17;;;35.13;;
14013;SDS011;49110;52.584;13.408;2024-02-21T03:30:46;37.33;;;34.50;;
14013;SDS011;49110;52.584;13.408;2024-02-21T03:31:47;38.20;;;35.00;;
14013;SDS011;49110;52.584;13.408;2024-02-21T03:32:47;40.47;;;37.07;;
14013;SDS011;49110;52.584;13.408;2024-02-21T03:33:48;38.73;;;35.70;;
14013;SDS011;49110;52.584;13.408;2024-02-21T03:34:48;42.03;;;38.63;;
14013;SDS011;49110;52.584;13.408;2024-02-21T03:35:48;39.73;;;36.37;;
14013;SDS011;49110;52.584;13.408;2024-02-21T03:36:49;41.67;;;38.27;;
14013;SDS011;49110;52.584;13.408;2024-02-21T03:37:49;38.60;;;35.27;;
14013;SDS011;49110;52.584;13.408;2024-02-21T03:38:50;42.63;;;39.03;;
14013;SDS011;49110;52.584;13.408;2024-02-21T03:39:50;43.10;;;39.63;;
14013;SDS011;49110;52.584;13.408;2024-02-21T03:40:51;43.27;;;39.73;;
14013;SDS011;49110;52.584;13.408;2024-02-21T03:41:51;41.53;;;38.30;;
14013;SDS011;49110;52.584;13.408;2024-02-21T03:42:52;42.37;;;39.17;;
14013;SDS011;49110;52.584;13.408;2024-02-21T03:43:52;43.63;;;40.23;;
14013;SDS011;49110;52.584;13.408;2024-02-21T03:44:53;41.70;;;38.27;;
14013;SDS011;49110;52.584;13.408;2024-02-21T03:45:53;43.97;;;40.57;;
14013;SDS011;49110;52.584;13.408;2024-02-21T03:46:54;42.73;;;39.30;;
14013;SDS011;49110;52.584;13.408;2024-02-21T03:47:54;44.03;;;40.93;;
14013;SDS011;49110;52.584;13.408;2024-02-21T03:48:55;45.67;;;42.00;;
14013;SDS011;49110;52.584;13.408;2024-02-21T03:49:56;45.23;;;41.83;;
14013;SDS011;49110;52.584;13.408;2024-02-21T03:50:56;44.80;;;41.40;;
14013;SDS011;49110;52.584;13.408;2024-02-21T03:51:57;45.80;;;42.23;;
14013;SDS011;49110;52.584;13.408;2024-02-21T03:52:57;45.20;;;42.00;;
14013;SDS011;49110;52.584;13.408;2024-02-21T03:53:57;42.77;;;39.40;;
14013;SDS011;49110;52.584;13.408;2024-02-21T03:54:58;44.60;;;41.20;;
14013;SDS011;49110;52.584;13.408;2024-02-21T03:56:01;44.50;;;40.80;;
14013;SDS011;49110;52.584;13.408;2024-02-21T03:57:04;46.40;;;42.80;;
14013;SDS011;49110;52.584;13.408;2024-02-21T03:58:05;47.67;;;44.10;;
14013;SDS011;49110;52.584;13.408;2024-02-21T03:59:06;44.70;;;41.13;;
14013;SDS011;49110;52.584;13.408;2024-02-21T04:00:07;45.27;;;41.63;;
14013;SDS011;49110;52.584;13.408;2024-02-21T04:01:10;44.50;;;41.13;;
14013;SDS011;49110;52.584;13.408;2024-02-21T04:02:12;46.57;;;42.97;;
14013;SDS011;49110;52.584;13.408;2024-02-21T04:03:12;44.77;;;41.57;;
14013;SDS011;49110;52.584;13.408;2024-02-21T04:04:13;45.70;;;41.97;;
14013;SDS011;49110;52.584;13.408;2024-02-21T04:05:15;44.33;;;41.10;;
14013;SDS011;49110;52.584;13.408;2024-02-21T04:06:16;44.93;;;41.40;;
14013;SDS011;49110;52.584;13.408;2024-02-21T04:07:16;45.50;;;42.20;;
14013;SDS011;49110;52.584;13.408;2024-02-21T04:08:17;44.10;;;40.80;;
14013;SDS011;49110;52.584;13.408;2024-02-21T04:09:18;45.87;;;42.27;;
14013;SDS011;49110;52.584;13.408;2024-02-21T04:10:18;45.43;;;42.00;;
14013;SDS011;49110;52.584;13.408;2024-02-21T04:11:19;44.27;;;40.97;;
14013;SDS011;49110;52.584;13.408;2024-02-21T04:12:19;43.20;;;39.70;;
14013;SDS011;49110;52.584;13.408;2024-02-21T04:13:20;43.97;;;40.60;;
14013;SDS011;49110;52.584;13.408;2024-02-21T04:14:22;46.93;;;43.10;;
14013;SDS011;49110;52.584;13.408;2024-02-21T04:15:23;45.07;;;41.30;;
14013;SDS011;49110;52.584;13.408;2024-02-21T04:16:23;44.53;;;41.13;;
14013;SDS011;49110;52.584;13.408;2024-02-21T04:17:24;45.53;;;42.23;;
14013;SDS011;49110;52.584;13.408;2024-02-21T04:18:24;44.83;;;41.60;;
14013;SDS011;49110;52.584;13.408;2024-02-21T04:19:25;43.07;;;39.60;;
14013;SDS011;49110;52.584;13.408;2024-02-21T04:20:25;43.80;;;40.57;;
14013;SDS011;49110;52.584;13.408;2024-02-21T04:21:26;45.03;;;41.40;;
14013;SDS011;49110;52.584;13.408;2024-02-21T04:22:26;42.57;;;39.43;;
14013;SDS011;49110;52.584;13.408;2024-02-21T04:23:27;43.60;;;40.37;;
14013;SDS011;49110;52.584;13.408;2024-02-21T04:24:27;44.53;;;41.43;;
14013;SDS011;49110;52.584;13.408;2024-02-21T04:25:27;43.40;;;40.13;;
14013;SDS011;49110;52.584;13.408;2024-02-21T04:26:28;45.43;;;41.83;;
14013;SDS011;49110;52.584;13.408;2024-02-21T04:27:28;43.53;;;40.20;;
14013;SDS011;49110;52.584;13.408;2024-02-21T04:28:29;47.20;;;43.67;;
14013;SDS011;49110;52.584;13.408;2024-02-21T04:29:29;43.70;;;40.47;;
14013;SDS011;49110;52.584;13.408;2024-02-21T04:30:30;43.67;;;40.47;;
14013;SDS011;49110;52.584;13.408;2024-02-21T04:31:34;48.07;;;44.40;;
14013;SDS011;49110;52.584;13.408;2024-02-21T04:32:34;43.20;;;39.80;;
14013;SDS011;49110;52.584;13.408;2024-02-21T04:33:35;43.77;;;40.60;;
14013;SDS011;49110;52.584;13.408;2024-02-21T04:34:35;45.07;;;41.47;;
14013;SDS011;49110;52.584;13.408;2024-02-21T04:35:36;47.63;;;43.83;;
14013;SDS011;49110;52.584;13.408;2024-02-21T04:36:36;47.33;;;43.90;;
14013;SDS011;49110;52.584;13.408;2024-02-21T04:37:37;48.60;;;44.50;;
14013;SDS011;49110;52.584;13.408;2024-02-21T04:38:37;46.50;;;43.23;;
14013;SDS011;49110;52.584;13.408;2024-02-21T04:39:39;46.83;;;43.30;;
14013;SDS011;49110;52.584;13.408;2024-02-21T04:40:39;45.90;;;42.53;;
14013;SDS011;49110;52.584;13.408;2024-02-21T04:41:40;46.80;;;43.30;;
14013;SDS011;49110;52.584;13.408;2024-02-21T04:42:40;47.63;;;44.23;;
14013;SDS011;49110;52.584;13.408;2024-02-21T04:43:41;47.77;;;44.30;;
14013;SDS011;49110;52.584;13.408;2024-02-21T04:44:41;47.03;;;43.60;;
14013;SDS011;49110;52.584;13.408;2024-02-21T04:45:42;45.57;;;42.03;;
14013;SDS011;49110;52.584;13.408;2024-02-21T04:46:42;46.90;;;43.40;;
14013;SDS011;49110;52.584;13.408;2024-02-21T04:47:43;46.43;;;43.07;;
14013;SDS011;49110;52.584;13.408;2024-02-21T04:48:44;46.60;;;42.80;;
14013;SDS011;49110;52.584;13.408;2024-02-21T04:49:45;45.37;;;42.03;;
14013;SDS011;49110;52.584;13.408;2024-02-21T04:50:46;45.00;;;41.30;;
14013;SDS011;49110;52.584;13.408;2024-02-21T04:51:46;44.20;;;40.90;;
14013;SDS011;49110;52.584;13.408;2024-02-21T04:52:47;45.53;;;41.83;;
14013;SDS011;49110;52.584;13.408;2024-02-21T04:53:47;43.40;;;39.97;;
14013;SDS011;49110;52.584;13.408;2024-02-21T04:54:48;41.70;;;38.70;;
14013;SDS011;49110;52.584;13.408;2024-02-21T04:55:48;41.40;;;38.23;;
14013;SDS011;49110;52.584;13.408;2024-02-21T04:56:49;42.43;;;39.00;;
14013;SDS011;49110;52.584;13.408;2024-02-21T04:57:50;41.47;;;38.57;;
14013;SDS011;49110;52.584;13.408;2024-02-21T04:58:50;41.20;;;37.97;;
14013;SDS011;49110;52.584;13.408;2024-02-21T04:59:51;42.07;;;38.60;;
14013;SDS011;49110;52.584;13.408;2024-02-21T05:00:52;42.83;;;39.57;;
14013;SDS011;49110;52.584;13.408;2024-02-21T05:01:54;44.70;;;41.27;;
14013;SDS011;49110;52.584;13.408;2024-02-21T05:02:55;45.50;;;41.90;;
14013;SDS011;49110;52.584;13.408;2024-02-21T05:03:55;45.97;;;42.23;;
14013;SDS011;49110;52.584;13.408;2024-02-21T05:04:56;44.00;;;40.70;;
14013;SDS011;49110;52.584;13.408;2024-02-21T05:05:57;46.17;;;42.37;;
14013;SDS011;49110;52.584;13.408;2024-02-21T05:06:59;44.20;;;40.90;;
14013;SDS011;49110;52.584;13.408;2024-02-21T05:08:01;43.27;;;39.90;;
14013;SDS011;49110;52.584;13.408;2024-02-21T05:09:01;45.70;;;42.17;;
14013;SDS011;49110;52.584;13.408;2024-02-21T05:10:02;45.13;;;41.83;;
14013;SDS011;49110;52.584;13.408;2024-02-21T05:11:03;43.73;;;40.17;;
14013;SDS011;49110;52.584;13.408;2024-02-21T05:12:03;45.93;;;42.23;;
14013;SDS011;49110;52.584;13.408;2024-02-21T05:13:04;43.60;;;40.40;;
14013;SDS011;49110;52.584;13.408;2024-02-21T05:14:04;43.47;;;40.20;;
14013;SDS011;49110;52.584;13.408;2024-02-21T05:15:05;47.13;;;43.33;;
14013;SDS011;49110;52.584;13.408;2024-02-21T05:16:06;45.57;;;42.23;;
14013;SDS011;49110;52.584;13.408;2024-02-21T05:17:06;44.20;;;40.77;;
14013;SDS011;49110;52.584;13.408;2024-02-21T05:18:07;44.70;;;41.20;;
14013;SDS011;49110;52.584;13.408;2024-02-21T05:19:07;44.33;;;40.90;;
14013;SDS011;49110;52.584;13.408;2024-02-21T05:20:08;44.93;;;41.70;;
14013;SDS011;49110;52.584;13.408;2024-02-21T05:21:09;44.27;;;40.97;;
14013;SDS011;49110;52.584;13.408;2024-02-21T05:22:10;44.70;;;41.17;;
14013;SDS011;49110;52.584;13.408;2024-02-21T05:23:10;45.23;;;41.70;;
14013;SDS011;49110;52.584;13.408;2024-02-21T05:24:11;43.50;;;40.00;;
14013;SDS011;49110;52.584;13.408;2024-02-21T05:25:12;45.53;;;42.07;;
14013;SDS011;49110;52.584;13.408;2024-02-21T05:26:19;44.93;;;41.33;;
14013;SDS011;49110;52.584;13.408;2024-02-21T05:27:24;41.70;;;38.73;;
14013;SDS011;49110;52.584;13.408;2024-02-21T05:28:24;43.60;;;40.23;;
14013;SDS011;49110;52.584;13.408;2024-02-21T05:29:25;45.30;;;41.73;;
14013;SDS011;49110;52.584;13.408;2024-02-21T05:30:25;43.33;;;39.87;;
14013;SDS011;49110;52.584;13.408;2024-02-21T05:31:26;43.57;;;40.27;;
14013;SDS011;49110;52.584;13.408;2024-02-21T05:32:33;42.07;;;38.57;;
14013;SDS011;49110;52.584;13.408;2024-02-21T05:33:34;42.20;;;38.63;;
14013;SDS011;49110;52.584;13.408;2024-02-21T05:34:34;43.30;;;39.83;;
14013;SDS011;49110;52.584;13.408;2024-02-21T05:35:35;41.77;;;38.50;;
14013;SDS011;49110;52.584;13.408;2024-02-21T05:36:36;44.77;;;41.23;;
14013;SDS011;49110;52.584;13.408;2024-02-21T05:37:37;44.33;;;40.57;;
14013;SDS011;49110;52.584;13.408;2024-02-21T05:38:38;43.13;;;39.43;;
14013;SDS011;49110;52.584;13.408;2024-02-21T05:39:39;42.47;;;39.13;;
14013;SDS011;49110;52.584;13.408;2024-02-21T05:40:40;44.50;;;40.80;;
14013;SDS011;49110;52.584;13.408;2024-02-21T05:41:40;44.33;;;40.87;;
14013;SDS011;49110;52.584;13.408;2024-02-21T05:42:41;41.33;;;37.93;;
14013;SDS011;49110;52.584;13.408;2024-02-21T05:43:41;43.20;;;39.93;;
14013;SDS011;49110;52.584;13.408;2024-02-21T05:44:42;42.87;;;39.37;;
14013;SDS011;49110;52.584;13.408;2024-02-21T05:45:42;42.63;;;39.03;;
14013;SDS011;49110;52.584;13.408;2024-02-21T05:46:43;42.60;;;39.43;;
14013;SDS011;49110;52.584;13.408;2024-02-21T05:47:43;45.13;;;41.70;;
14013;SDS011;49110;52.584;13.408;2024-02-21T05:48:44;44.97;;;41.57;;
14013;SDS011;49110;52.584;13.408;2024-02-21T05:49:44;44.93;;;41.23;;
14013;SDS011;49110;52.584;13.408;2024-02-21T05:50:45;45.60;;;41.97;;
14013;SDS011;49110;52.584;13.408;2024-02-21T05:51:45;43.67;;;40.50;;
14013;SDS011;49110;52.584;13.408;2024-02-21T05:52:46;45.93;;;42.37;;